sensor_id;sensor_type;location;lat;lon;timestamp;pressure;altitude;pressure_sealevel;temperature;humidity
59588;BME280;45412;54.472;18.464;2022-07-15T00:01:22;99389.09;;;12.41;89.75
59588;BME280;45412;54.472;18.464;2022-07-15T00:04:10;99386.12;;;12.39;90.01
59588;BME280;45412;54.472;18.464;2022-07-15T00:06:59;99383.23;;;12.36;90.10
59588;BME280;45412;54.472;18.464;2022-07-15T00:09:47;99383.52;;;12.33;90.08
59588;BME280;45412;54.472;18.464;2022-07-15T00:12:59;99378.95;;;12.29;90.35
59588;BME280;45412;54.472;18.464;2022-07-15T00:15:47;99376.48;;;12.25;90.72
59588;BME280;45412;54.472;18.464;2022-07-15T00:18:35;99374.42;;;12.20;91.00
59588;BME280;45412;54.472;18.464;2022-07-15T00:21:23;99374.56;;;12.17;90.65
59588;BME280;45412;54.472;18.464;2022-07-15T00:24:11;99375.23;;;12.14;90.71
59588;BME280;45412;54.472;18.464;2022-07-15T00:27:00;99368.10;;;12.06;90.86
59588;BME280;45412;54.472;18.464;2022-07-15T00:29:50;99378.14;;;12.05;90.63
59588;BME280;45412;54.472;18.464;2022-07-15T00:32:38;99384.09;;;12.03;90.70
59588;BME280;45412;54.472;18.464;2022-07-15T00:35:28;99389.11;;;12.00;91.25
59588;BME280;45412;54.472;18.464;2022-07-15T00:38:16;99386.33;;;11.98;91.14
59588;BME280;45412;54.472;18.464;2022-07-15T00:41:05;99393.73;;;11.97;91.11
59588;BME280;45412;54.472;18.464;2022-07-15T00:43:53;99398.82;;;11.95;91.50
59588;BME280;45412;54.472;18.464;2022-07-15T00:46:41;99399.77;;;11.95;91.54
59588;BME280;45412;54.472;18.464;2022-07-15T00:49:29;99404.62;;;11.94;91.65
59588;BME280;45412;54.472;18.464;2022-07-15T00:52:19;99408.41;;;11.95;91.71
59588;BME280;45412;54.472;18.464;2022-07-15T00:55:12;99408.42;;;11.99;91.77
59588;BME280;45412;54.472;18.464;2022-07-15T00:58:03;99413.39;;;12.03;92.42
59588;BME280;45412;54.472;18.464;2022-07-15T01:00:54;99413.97;;;12.08;91.90
59588;BME280;45412;54.472;18.464;2022-07-15T01:03:47;99415.06;;;12.14;91.69
59588;BME280;45412;54.472;18.464;2022-07-15T01:06:36;99411.63;;;12.16;91.83
59588;BME280;45412;54.472;18.464;2022-07-15T01:09:24;99412.73;;;12.18;91.45
59588;BME280;45412;54.472;18.464;2022-07-15T01:12:13;99408.83;;;12.19;92.12
59588;BME280;45412;54.472;18.464;2022-07-15T01:15:01;99406.96;;;12.22;91.71
59588;BME280;45412;54.472;18.464;2022-07-15T01:17:50;99404.73;;;12.25;91.92
59588;BME280;45412;54.472;18.464;2022-07-15T01:20:41;99402.87;;;12.26;91.77
59588;BME280;45412;54.472;18.464;2022-07-15T01:23:30;99408.70;;;12.26;91.23
59588;BME280;45412;54.472;18.464;2022-07-15T01:26:50;99404.98;;;12.22;91.28
59588;BME280;45412;54.472;18.464;2022-07-15T01:29:41;99399.42;;;12.17;91.72
59588;BME280;45412;54.472;18.464;2022-07-15T01:32:29;99404.59;;;12.11;92.02
59588;BME280;45412;54.472;18.464;2022-07-15T01:35:18;99401.90;;;12.06;92.28
59588;BME280;45412;54.472;18.464;2022-07-15T01:38:09;99400.85;;;12.02;92.27
59588;BME280;45412;54.472;18.464;2022-07-15T01:40:58;99400.29;;;12.01;92.63
59588;BME280;45412;54.472;18.464;2022-07-15T01:43:46;99397.11;;;12.00;92.35
59588;BME280;45412;54.472;18.464;2022-07-15T01:46:35;99396.14;;;11.99;92.56
59588;BME280;45412;54.472;18.464;2022-07-15T01:49:23;99389.29;;;11.99;92.42
59588;BME280;45412;54.472;18.464;2022-07-15T01:52:40;99385.34;;;11.97;92.04
59588;BME280;45412;54.472;18.464;2022-07-15T01:55:29;99380.16;;;11.93;92.11
59588;BME280;45412;54.472;18.464;2022-07-15T01:58:19;99381.17;;;11.90;92.35
59588;BME280;45412;54.472;18.464;2022-07-15T02:01:07;99387.17;;;11.85;92.25
59588;BME280;45412;54.472;18.464;2022-07-15T02:03:58;99386.30;;;11.79;91.96
59588;BME280;45412;54.472;18.464;2022-07-15T02:06:48;99383.73;;;11.72;92.51
59588;BME280;45412;54.472;18.464;2022-07-15T02:09:38;99386.92;;;11.64;92.58
59588;BME280;45412;54.472;18.464;2022-07-15T02:12:26;99383.82;;;11.57;93.38
59588;BME280;45412;54.472;18.464;2022-07-15T02:15:16;99385.92;;;11.52;93.74
59588;BME280;45412;54.472;18.464;2022-07-15T02:18:08;99385.02;;;11.46;94.45
59588;BME280;45412;54.472;18.464;2022-07-15T02:20:58;99389.86;;;11.42;94.55
59588;BME280;45412;54.472;18.464;2022-07-15T02:23:48;99396.64;;;11.39;94.73
59588;BME280;45412;54.472;18.464;2022-07-15T02:26:37;99399.11;;;11.38;94.29
59588;BME280;45412;54.472;18.464;2022-07-15T02:29:25;99406.00;;;11.38;94.94
59588;BME280;45412;54.472;18.464;2022-07-15T02:32:13;99407.64;;;11.39;94.92
59588;BME280;45412;54.472;18.464;2022-07-15T02:35:02;99408.95;;;11.43;95.02
59588;BME280;45412;54.472;18.464;2022-07-15T02:37:50;99409.58;;;11.46;95.01
59588;BME280;45412;54.472;18.464;2022-07-15T02:40:39;99406.41;;;11.49;94.81
59588;BME280;45412;54.472;18.464;2022-07-15T02:43:31;99410.30;;;11.53;94.83
59588;BME280;45412;54.472;18.464;2022-07-15T02:46:19;99410.63;;;11.57;95.05
59588;BME280;45412;54.472;18.464;2022-07-15T02:49:08;99407.27;;;11.62;95.26
59588;BME280;45412;54.472;18.464;2022-07-15T02:51:58;99401.20;;;11.64;95.41
59588;BME280;45412;54.472;18.464;2022-07-15T02:54:47;99402.52;;;11.67;95.41
59588;BME280;45412;54.472;18.464;2022-07-15T02:57:37;99403.25;;;11.69;95.49
59588;BME280;45412;54.472;18.464;2022-07-15T03:00:25;99400.91;;;11.70;95.96
59588;BME280;45412;54.472;18.464;2022-07-15T03:03:18;99404.79;;;11.71;96.41
59588;BME280;45412;54.472;18.464;2022-07-15T03:06:06;99405.65;;;11.69;96.73
59588;BME280;45412;54.472;18.464;2022-07-15T03:08:55;99406.27;;;11.66;96.83
59588;BME280;45412;54.472;18.464;2022-07-15T03:11:43;99402.86;;;11.63;96.90
59588;BME280;45412;54.472;18.464;2022-07-15T03:14:34;99404.02;;;11.60;96.76
59588;BME280;45412;54.472;18.464;2022-07-15T03:17:22;99401.59;;;11.57;97.03
59588;BME280;45412;54.472;18.464;2022-07-15T03:20:11;99402.19;;;11.55;97.06
59588;BME280;45412;54.472;18.464;2022-07-15T03:23:05;99405.20;;;11.53;97.16
59588;BME280;45412;54.472;18.464;2022-07-15T03:25:53;99407.75;;;11.52;96.96
59588;BME280;45412;54.472;18.464;2022-07-15T03:28:41;99404.59;;;11.50;97.36
59588;BME280;45412;54.472;18.464;2022-07-15T03:31:29;99404.55;;;11.48;96.98
59588;BME280;45412;54.472;18.464;2022-07-15T03:34:19;99410.27;;;11.48;97.02
59588;BME280;45412;54.472;18.464;2022-07-15T03:37:09;99412.31;;;11.45;97.27
59588;BME280;45412;54.472;18.464;2022-07-15T03:39:57;99415.08;;;11.46;97.17
59588;BME280;45412;54.472;18.464;2022-07-15T03:42:46;99413.61;;;11.48;97.04
59588;BME280;45412;54.472;18.464;2022-07-15T03:45:34;99421.64;;;11.50;96.81
59588;BME280;45412;54.472;18.464;2022-07-15T03:48:22;99423.94;;;11.52;96.74
59588;BME280;45412;54.472;18.464;2022-07-15T03:51:11;99418.34;;;11.56;96.64
59588;BME280;45412;54.472;18.464;2022-07-15T03:54:01;99415.05;;;11.59;96.31
59588;BME280;45412;54.472;18.464;2022-07-15T03:56:50;99416.87;;;11.62;95.94
59588;BME280;45412;54.472;18.464;2022-07-15T03:59:39;99418.03;;;11.64;95.84
59588;BME280;45412;54.472;18.464;2022-07-15T04:02:27;99426.70;;;11.70;95.87
59588;BME280;45412;54.472;18.464;2022-07-15T04:05:19;99426.62;;;11.85;95.68
59588;BME280;45412;54.472;18.464;2022-07-15T04:08:11;99417.94;;;11.88;94.99
59588;BME280;45412;54.472;18.464;2022-07-15T04:11:00;99416.96;;;11.89;94.58
59588;BME280;45412;54.472;18.464;2022-07-15T04:13:48;99414.51;;;11.92;94.61
59588;BME280;45412;54.472;18.464;2022-07-15T04:16:39;99412.80;;;11.94;94.12
59588;BME280;45412;54.472;18.464;2022-07-15T04:19:58;99418.34;;;12.00;93.63
59588;BME280;45412;54.472;18.464;2022-07-15T04:22:46;99417.67;;;12.07;93.33
59588;BME280;45412;54.472;18.464;2022-07-15T04:25:37;99419.46;;;12.18;92.98
59588;BME280;45412;54.472;18.464;2022-07-15T04:28:26;99416.23;;;12.33;92.35
59588;BME280;45412;54.472;18.464;2022-07-15T04:31:14;99417.91;;;12.41;91.39
59588;BME280;45412;54.472;18.464;2022-07-15T04:34:10;99421.66;;;12.49;90.78
59588;BME280;45412;54.472;18.464;2022-07-15T04:37:01;99421.34;;;12.60;90.28
59588;BME280;45412;54.472;18.464;2022-07-15T04:39:50;99424.48;;;12.73;89.20
59588;BME280;45412;54.472;18.464;2022-07-15T04:42:39;99427.27;;;12.93;88.33
59588;BME280;45412;54.472;18.464;2022-07-15T04:45:30;99426.46;;;13.15;86.57
59588;BME280;45412;54.472;18.464;2022-07-15T04:48:19;99426.55;;;13.46;84.94
59588;BME280;45412;54.472;18.464;2022-07-15T04:51:26;99422.70;;;13.93;82.82
59588;BME280;45412;54.472;18.464;2022-07-15T04:54:17;99424.02;;;14.51;80.53
59588;BME280;45412;54.472;18.464;2022-07-15T04:57:07;99418.33;;;15.23;75.88
59588;BME280;45412;54.472;18.464;2022-07-15T04:59:55;99428.06;;;15.86;72.13
59588;BME280;45412;54.472;18.464;2022-07-15T05:02:44;99422.33;;;16.46;69.70
59588;BME280;45412;54.472;18.464;2022-07-15T05:05:35;99426.59;;;17.09;66.68
59588;BME280;45412;54.472;18.464;2022-07-15T05:08:23;99421.48;;;17.64;64.18
59588;BME280;45412;54.472;18.464;2022-07-15T05:11:13;99414.05;;;18.12;61.46
59588;BME280;45412;54.472;18.464;2022-07-15T05:14:03;99412.73;;;18.51;59.67
59588;BME280;45412;54.472;18.464;2022-07-15T05:16:52;99415.12;;;19.06;57.92
59588;BME280;45412;54.472;18.464;2022-07-15T05:19:40;99417.33;;;19.69;56.20
59588;BME280;45412;54.472;18.464;2022-07-15T05:22:29;99419.42;;;20.32;53.33
59588;BME280;45412;54.472;18.464;2022-07-15T05:25:17;99422.27;;;20.77;50.85
59588;BME280;45412;54.472;18.464;2022-07-15T05:28:05;99423.11;;;21.34;49.62
59588;BME280;45412;54.472;18.464;2022-07-15T05:30:54;99415.56;;;21.93;47.84
59588;BME280;45412;54.472;18.464;2022-07-15T05:33:43;99417.16;;;22.54;46.30
59588;BME280;45412;54.472;18.464;2022-07-15T05:36:31;99416.15;;;23.12;44.48
59588;BME280;45412;54.472;18.464;2022-07-15T05:39:20;99416.34;;;23.60;42.48
59588;BME280;45412;54.472;18.464;2022-07-15T05:42:08;99419.75;;;23.97;40.97
59588;BME280;45412;54.472;18.464;2022-07-15T05:44:56;99428.75;;;24.29;40.16
59588;BME280;45412;54.472;18.464;2022-07-15T05:47:51;99427.56;;;24.62;39.36
59588;BME280;45412;54.472;18.464;2022-07-15T05:50:41;99429.04;;;24.66;38.22
59588;BME280;45412;54.472;18.464;2022-07-15T05:53:32;99429.73;;;25.14;38.49
59588;BME280;45412;54.472;18.464;2022-07-15T05:56:20;99431.61;;;25.66;36.64
59588;BME280;45412;54.472;18.464;2022-07-15T05:59:08;99426.55;;;25.98;35.41
59588;BME280;45412;54.472;18.464;2022-07-15T06:01:59;99434.35;;;26.48;34.73
59588;BME280;45412;54.472;18.464;2022-07-15T06:04:47;99423.41;;;26.71;33.92
59588;BME280;45412;54.472;18.464;2022-07-15T06:07:36;99419.66;;;26.37;33.61
59588;BME280;45412;54.472;18.464;2022-07-15T06:10:25;99432.36;;;25.83;34.79
59588;BME280;45412;54.472;18.464;2022-07-15T06:13:14;99427.46;;;26.15;34.29
59588;BME280;45412;54.472;18.464;2022-07-15T06:16:06;99428.97;;;26.19;33.83
59588;BME280;45412;54.472;18.464;2022-07-15T06:18:54;99432.04;;;26.07;33.85
59588;BME280;45412;54.472;18.464;2022-07-15T06:21:42;99424.77;;;26.26;34.00
59588;BME280;45412;54.472;18.464;2022-07-15T06:24:30;99428.20;;;25.45;35.02
59588;BME280;45412;54.472;18.464;2022-07-15T06:27:19;99428.45;;;24.31;37.13
59588;BME280;45412;54.472;18.464;2022-07-15T06:30:10;99431.10;;;23.78;38.47
59588;BME280;45412;54.472;18.464;2022-07-15T06:32:57;99434.30;;;24.49;37.50
59588;BME280;45412;54.472;18.464;2022-07-15T06:35:47;99435.84;;;25.34;36.53
59588;BME280;45412;54.472;18.464;2022-07-15T06:38:35;99432.20;;;26.27;34.85
59588;BME280;45412;54.472;18.464;2022-07-15T06:41:23;99430.29;;;27.01;33.06
59588;BME280;45412;54.472;18.464;2022-07-15T06:44:17;99437.98;;;27.62;32.23
59588;BME280;45412;54.472;18.464;2022-07-15T06:47:14;99447.93;;;27.84;31.80
59588;BME280;45412;54.472;18.464;2022-07-15T06:50:03;99451.91;;;27.83;31.06
59588;BME280;45412;54.472;18.464;2022-07-15T06:52:52;99450.04;;;27.89;31.08
59588;BME280;45412;54.472;18.464;2022-07-15T06:55:42;99446.46;;;27.85;30.75
59588;BME280;45412;54.472;18.464;2022-07-15T06:58:29;99448.60;;;27.71;31.32
59588;BME280;45412;54.472;18.464;2022-07-15T07:01:18;99444.91;;;27.87;31.39
59588;BME280;45412;54.472;18.464;2022-07-15T07:04:07;99449.59;;;28.02;31.07
59588;BME280;45412;54.472;18.464;2022-07-15T07:06:55;99444.95;;;28.11;30.00
59588;BME280;45412;54.472;18.464;2022-07-15T07:09:43;99444.85;;;28.35;29.82
59588;BME280;45412;54.472;18.464;2022-07-15T07:12:31;99453.23;;;28.75;29.07
59588;BME280;45412;54.472;18.464;2022-07-15T07:15:19;99455.06;;;28.77;29.44
59588;BME280;45412;54.472;18.464;2022-07-15T07:18:08;99459.53;;;27.87;29.94
59588;BME280;45412;54.472;18.464;2022-07-15T07:20:56;99462.39;;;26.45;31.72
59588;BME280;45412;54.472;18.464;2022-07-15T07:23:45;99468.59;;;26.35;32.31
59588;BME280;45412;54.472;18.464;2022-07-15T07:26:34;99463.58;;;26.47;31.69
59588;BME280;45412;54.472;18.464;2022-07-15T07:29:22;99462.99;;;26.37;32.39
59588;BME280;45412;54.472;18.464;2022-07-15T07:32:13;99469.12;;;26.76;31.03
59588;BME280;45412;54.472;18.464;2022-07-15T07:35:01;99473.50;;;25.22;31.79
59588;BME280;45412;54.472;18.464;2022-07-15T07:37:49;99479.81;;;23.94;33.74
59588;BME280;45412;54.472;18.464;2022-07-15T07:40:38;99488.71;;;22.63;36.24
59588;BME280;45412;54.472;18.464;2022-07-15T07:43:27;99506.80;;;21.54;38.75
59588;BME280;45412;54.472;18.464;2022-07-15T07:46:15;99511.50;;;20.55;41.16
59588;BME280;45412;54.472;18.464;2022-07-15T07:49:04;99511.69;;;19.66;43.32
59588;BME280;45412;54.472;18.464;2022-07-15T07:52:14;99511.14;;;19.04;45.39
59588;BME280;45412;54.472;18.464;2022-07-15T07:55:03;99517.52;;;18.85;46.58
59588;BME280;45412;54.472;18.464;2022-07-15T07:57:55;99517.73;;;18.79;47.67
59588;BME280;45412;54.472;18.464;2022-07-15T08:00:44;99521.13;;;18.73;48.15
59588;BME280;45412;54.472;18.464;2022-07-15T08:03:32;99522.80;;;18.77;48.51
59588;BME280;45412;54.472;18.464;2022-07-15T08:06:20;99518.98;;;19.31;47.52
59588;BME280;45412;54.472;18.464;2022-07-15T08:09:10;99523.70;;;19.64;46.92
59588;BME280;45412;54.472;18.464;2022-07-15T08:11:58;99519.74;;;20.63;45.14
59588;BME280;45412;54.472;18.464;2022-07-15T08:14:46;99521.16;;;20.81;44.53
59588;BME280;45412;54.472;18.464;2022-07-15T08:17:38;99520.20;;;20.95;44.41
59588;BME280;45412;54.472;18.464;2022-07-15T08:20:28;99520.16;;;21.20;43.99
59588;BME280;45412;54.472;18.464;2022-07-15T08:23:17;99525.88;;;21.00;44.91
59588;BME280;45412;54.472;18.464;2022-07-15T08:26:08;99533.64;;;20.47;46.29
59588;BME280;45412;54.472;18.464;2022-07-15T08:28:58;99542.85;;;20.08;47.80
59588;BME280;45412;54.472;18.464;2022-07-15T08:31:52;99550.74;;;19.58;49.71
59588;BME280;45412;54.472;18.464;2022-07-15T08:34:40;99552.42;;;19.07;51.75
59588;BME280;45412;54.472;18.464;2022-07-15T08:37:29;99561.20;;;18.49;54.33
59588;BME280;45412;54.472;18.464;2022-07-15T08:40:18;99570.08;;;18.04;57.03
59588;BME280;45412;54.472;18.464;2022-07-15T08:43:11;99571.11;;;17.74;58.59
59588;BME280;45412;54.472;18.464;2022-07-15T08:46:01;99576.02;;;17.38;60.54
59588;BME280;45412;54.472;18.464;2022-07-15T08:48:52;99578.00;;;17.15;60.95
59588;BME280;45412;54.472;18.464;2022-07-15T08:51:46;99581.44;;;17.04;62.70
59588;BME280;45412;54.472;18.464;2022-07-15T08:54:34;99580.16;;;16.93;63.58
59588;BME280;45412;54.472;18.464;2022-07-15T08:57:23;99579.05;;;16.88;64.25
59588;BME280;45412;54.472;18.464;2022-07-15T09:00:12;99578.33;;;16.96;64.60
59588;BME280;45412;54.472;18.464;2022-07-15T09:03:02;99580.21;;;17.10;65.26
59588;BME280;45412;54.472;18.464;2022-07-15T09:05:52;99576.34;;;17.27;64.32
59588;BME280;45412;54.472;18.464;2022-07-15T09:08:42;99572.22;;;18.00;62.12
59588;BME280;45412;54.472;18.464;2022-07-15T09:11:30;99564.52;;;19.83;57.29
59588;BME280;45412;54.472;18.464;2022-07-15T09:14:19;99565.41;;;21.27;51.79
59588;BME280;45412;54.472;18.464;2022-07-15T09:20:02;99573.68;;;20.86;52.24
59588;BME280;45412;54.472;18.464;2022-07-15T09:22:54;99579.34;;;19.99;54.29
59588;BME280;45412;54.472;18.464;2022-07-15T09:25:44;99580.91;;;19.42;57.05
59588;BME280;45412;54.472;18.464;2022-07-15T09:28:41;99580.02;;;19.03;58.21
59588;BME280;45412;54.472;18.464;2022-07-15T09:31:38;99579.55;;;19.04;59.13
59588;BME280;45412;54.472;18.464;2022-07-15T09:35:06;99584.99;;;20.08;57.03
59588;BME280;45412;54.472;18.464;2022-07-15T09:38:23;99577.81;;;21.70;53.22
59588;BME280;45412;54.472;18.464;2022-07-15T09:44:21;99590.73;;;20.97;53.74
59588;BME280;45412;54.472;18.464;2022-07-15T09:47:17;99596.15;;;20.39;55.87
59588;BME280;45412;54.472;18.464;2022-07-15T09:50:13;99593.13;;;19.97;56.04
59588;BME280;45412;54.472;18.464;2022-07-15T09:53:13;99593.27;;;19.45;55.01
59588;BME280;45412;54.472;18.464;2022-07-15T09:56:07;99593.91;;;19.30;56.81
59588;BME280;45412;54.472;18.464;2022-07-15T09:58:57;99598.80;;;19.31;57.12
59588;BME280;45412;54.472;18.464;2022-07-15T10:01:46;99594.55;;;19.58;56.26
59588;BME280;45412;54.472;18.464;2022-07-15T10:04:37;99591.28;;;20.71;53.33
59588;BME280;45412;54.472;18.464;2022-07-15T10:07:25;99585.33;;;21.77;49.61
59588;BME280;45412;54.472;18.464;2022-07-15T10:10:17;99592.92;;;22.01;48.53
59588;BME280;45412;54.472;18.464;2022-07-15T10:29:56;99609.11;;;21.69;47.90
59588;BME280;45412;54.472;18.464;2022-07-15T10:36:08;99613.96;;;21.59;49.29
59588;BME280;45412;54.472;18.464;2022-07-15T10:39:05;99621.92;;;21.01;52.46
59588;BME280;45412;54.472;18.464;2022-07-15T10:42:03;99623.75;;;20.30;54.18
59588;BME280;45412;54.472;18.464;2022-07-15T10:45:04;99624.95;;;19.69;56.16
59588;BME280;45412;54.472;18.464;2022-07-15T10:48:32;99621.54;;;19.44;57.25
59588;BME280;45412;54.472;18.464;2022-07-15T10:57:15;99608.00;;;23.60;46.88
59588;BME280;45412;54.472;18.464;2022-07-15T11:00:05;99609.55;;;24.47;45.22
59588;BME280;45412;54.472;18.464;2022-07-15T11:08:53;99602.10;;;27.28;37.24
59588;BME280;45412;54.472;18.464;2022-07-15T11:15:10;99607.23;;;25.91;38.61
59588;BME280;45412;54.472;18.464;2022-07-15T11:18:00;99615.30;;;24.17;41.18
59588;BME280;45412;54.472;18.464;2022-07-15T11:20:55;99616.14;;;23.05;43.81
59588;BME280;45412;54.472;18.464;2022-07-15T11:23:47;99624.30;;;22.47;45.44
59588;BME280;45412;54.472;18.464;2022-07-15T11:26:47;99628.46;;;21.98;46.03
59588;BME280;45412;54.472;18.464;2022-07-15T11:29:46;99631.55;;;21.82;45.69
59588;BME280;45412;54.472;18.464;2022-07-15T11:32:35;99630.35;;;21.88;45.51
59588;BME280;45412;54.472;18.464;2022-07-15T11:35:24;99621.99;;;22.16;44.10
59588;BME280;45412;54.472;18.464;2022-07-15T11:38:13;99635.06;;;21.86;44.02
59588;BME280;45412;54.472;18.464;2022-07-15T11:41:04;99627.64;;;21.70;44.96
59588;BME280;45412;54.472;18.464;2022-07-15T11:44:19;99625.11;;;21.62;45.15
59588;BME280;45412;54.472;18.464;2022-07-15T11:47:20;99623.67;;;21.51;45.78
59588;BME280;45412;54.472;18.464;2022-07-15T11:50:11;99619.85;;;21.40;44.66
59588;BME280;45412;54.472;18.464;2022-07-15T11:52:59;99625.40;;;21.23;44.54
59588;BME280;45412;54.472;18.464;2022-07-15T11:58:52;99631.77;;;20.62;45.09
59588;BME280;45412;54.472;18.464;2022-07-15T12:01:41;99650.05;;;20.38;46.58
59588;BME280;45412;54.472;18.464;2022-07-15T12:04:29;99650.63;;;20.32;46.86
59588;BME280;45412;54.472;18.464;2022-07-15T12:07:18;99643.83;;;20.25;47.56
59588;BME280;45412;54.472;18.464;2022-07-15T12:10:07;99642.80;;;20.23;48.55
59588;BME280;45412;54.472;18.464;2022-07-15T12:12:58;99641.11;;;20.32;49.02
59588;BME280;45412;54.472;18.464;2022-07-15T12:15:49;99637.09;;;20.25;47.58
59588;BME280;45412;54.472;18.464;2022-07-15T12:18:38;99629.61;;;20.13;46.86
59588;BME280;45412;54.472;18.464;2022-07-15T12:21:28;99643.43;;;19.81;47.44
59588;BME280;45412;54.472;18.464;2022-07-15T12:24:24;99641.17;;;19.87;47.72
59588;BME280;45412;54.472;18.464;2022-07-15T12:27:14;99639.40;;;20.08;48.19
59588;BME280;45412;54.472;18.464;2022-07-15T12:30:05;99639.00;;;20.24;47.73
59588;BME280;45412;54.472;18.464;2022-07-15T12:33:20;99637.09;;;20.28;46.74
59588;BME280;45412;54.472;18.464;2022-07-15T12:36:22;99653.71;;;20.09;45.89
59588;BME280;45412;54.472;18.464;2022-07-15T12:39:14;99649.44;;;20.01;45.80
59588;BME280;45412;54.472;18.464;2022-07-15T12:42:07;99654.52;;;20.03;46.01
59588;BME280;45412;54.472;18.464;2022-07-15T12:45:18;99650.64;;;19.97;45.97
59588;BME280;45412;54.472;18.464;2022-07-15T12:48:13;99655.70;;;19.94;45.45
59588;BME280;45412;54.472;18.464;2022-07-15T12:51:02;99655.17;;;19.88;45.46
59588;BME280;45412;54.472;18.464;2022-07-15T12:53:50;99653.45;;;19.92;45.52
59588;BME280;45412;54.472;18.464;2022-07-15T12:56:51;99659.41;;;20.01;45.86
59588;BME280;45412;54.472;18.464;2022-07-15T13:03:19;99659.58;;;20.05;45.66
59588;BME280;45412;54.472;18.464;2022-07-15T13:06:12;99662.46;;;19.85;45.09
59588;BME280;45412;54.472;18.464;2022-07-15T13:09:03;99667.58;;;19.80;45.35
59588;BME280;45412;54.472;18.464;2022-07-15T13:11:58;99662.43;;;19.85;45.01
59588;BME280;45412;54.472;18.464;2022-07-15T13:14:48;99666.07;;;19.95;45.59
59588;BME280;45412;54.472;18.464;2022-07-15T13:17:36;99664.73;;;19.90;45.79
59588;BME280;45412;54.472;18.464;2022-07-15T13:20:25;99681.27;;;19.78;46.36
59588;BME280;45412;54.472;18.464;2022-07-15T13:23:14;99679.27;;;19.78;45.95
59588;BME280;45412;54.472;18.464;2022-07-15T13:26:02;99680.20;;;19.98;45.37
59588;BME280;45412;54.472;18.464;2022-07-15T13:28:50;99681.10;;;20.09;45.76
59588;BME280;45412;54.472;18.464;2022-07-15T13:31:38;99688.05;;;20.02;45.91
59588;BME280;45412;54.472;18.464;2022-07-15T13:34:26;99683.89;;;20.05;46.06
59588;BME280;45412;54.472;18.464;2022-07-15T13:37:14;99685.65;;;20.02;45.47
59588;BME280;45412;54.472;18.464;2022-07-15T13:40:05;99687.43;;;19.88;45.67
59588;BME280;45412;54.472;18.464;2022-07-15T13:42:54;99688.98;;;19.77;45.64
59588;BME280;45412;54.472;18.464;2022-07-15T13:45:42;99686.10;;;19.68;45.63
59588;BME280;45412;54.472;18.464;2022-07-15T13:48:34;99684.15;;;19.64;45.70
59588;BME280;45412;54.472;18.464;2022-07-15T13:51:22;99685.48;;;19.65;44.28
59588;BME280;45412;54.472;18.464;2022-07-15T13:54:10;99694.91;;;19.65;44.79
59588;BME280;45412;54.472;18.464;2022-07-15T13:56:59;99688.69;;;19.81;45.46
59588;BME280;45412;54.472;18.464;2022-07-15T13:59:50;99683.85;;;19.79;45.17
59588;BME280;45412;54.472;18.464;2022-07-15T14:02:39;99690.02;;;19.81;45.61
59588;BME280;45412;54.472;18.464;2022-07-15T14:05:27;99692.41;;;19.92;46.23
59588;BME280;45412;54.472;18.464;2022-07-15T14:08:16;99687.96;;;19.99;46.06
59588;BME280;45412;54.472;18.464;2022-07-15T14:11:04;99693.61;;;19.91;46.29
59588;BME280;45412;54.472;18.464;2022-07-15T14:13:52;99690.98;;;19.72;46.89
59588;BME280;45412;54.472;18.464;2022-07-15T14:16:40;99688.73;;;19.73;46.79
59588;BME280;45412;54.472;18.464;2022-07-15T14:19:29;99693.96;;;19.89;46.62
59588;BME280;45412;54.472;18.464;2022-07-15T14:22:17;99693.95;;;20.05;46.43
59588;BME280;45412;54.472;18.464;2022-07-15T14:25:05;99697.98;;;20.00;46.03
59588;BME280;45412;54.472;18.464;2022-07-15T14:27:56;99704.65;;;19.87;46.49
59588;BME280;45412;54.472;18.464;2022-07-15T14:30:45;99709.45;;;19.65;47.98
59588;BME280;45412;54.472;18.464;2022-07-15T14:33:33;99728.50;;;19.44;50.98
59588;BME280;45412;54.472;18.464;2022-07-15T14:36:22;99735.49;;;19.15;54.21
59588;BME280;45412;54.472;18.464;2022-07-15T14:39:10;99733.53;;;19.04;56.44
59588;BME280;45412;54.472;18.464;2022-07-15T14:41:58;99729.55;;;18.87;55.74
59588;BME280;45412;54.472;18.464;2022-07-15T14:44:46;99730.73;;;18.69;56.52
59588;BME280;45412;54.472;18.464;2022-07-15T14:47:34;99724.55;;;18.74;56.76
59588;BME280;45412;54.472;18.464;2022-07-15T14:50:23;99722.66;;;18.95;56.56
59588;BME280;45412;54.472;18.464;2022-07-15T14:53:11;99731.58;;;19.08;56.33
59588;BME280;45412;54.472;18.464;2022-07-15T14:55:59;99730.28;;;19.02;56.14
59588;BME280;45412;54.472;18.464;2022-07-15T14:58:47;99732.69;;;18.91;56.13
59588;BME280;45412;54.472;18.464;2022-07-15T15:01:35;99736.02;;;18.78;56.18
59588;BME280;45412;54.472;18.464;2022-07-15T15:04:24;99743.46;;;18.58;55.80
59588;BME280;45412;54.472;18.464;2022-07-15T15:07:12;99747.31;;;18.45;56.51
59588;BME280;45412;54.472;18.464;2022-07-15T15:10:02;99762.95;;;18.26;59.10
59588;BME280;45412;54.472;18.464;2022-07-15T15:12:51;99773.52;;;17.87;61.48
59588;BME280;45412;54.472;18.464;2022-07-15T15:15:39;99772.37;;;17.49;63.09
59588;BME280;45412;54.472;18.464;2022-07-15T15:18:26;99774.02;;;17.29;64.05
59588;BME280;45412;54.472;18.464;2022-07-15T15:21:15;99772.71;;;17.26;62.77
59588;BME280;45412;54.472;18.464;2022-07-15T15:24:04;99771.27;;;17.44;63.52
59588;BME280;45412;54.472;18.464;2022-07-15T15:26:54;99767.36;;;17.57;62.95
59588;BME280;45412;54.472;18.464;2022-07-15T15:29:43;99765.34;;;17.65;63.11
59588;BME280;45412;54.472;18.464;2022-07-15T15:32:31;99768.16;;;17.51;62.90
59588;BME280;45412;54.472;18.464;2022-07-15T15:35:19;99765.95;;;17.50;63.37
59588;BME280;45412;54.472;18.464;2022-07-15T15:38:07;99768.09;;;17.41;63.96
59588;BME280;45412;54.472;18.464;2022-07-15T15:40:55;99766.42;;;17.33;64.49